Time;durP1;ratioP1;P1;durP2;ratioP2;P2;SDS_P1;SDS_P2;PMS_P1;PMS_P2;Temp;Humidity;BMP_temperature;BMP_pressure;BME280_temperature;BME280_humidity;BME280_pressure;Samples;Min_cycle;Max_cycle;Signal;HPM_P1;HPM_P2
2022/11/25 00:01:17;;;;;;;36.08;19.25;;;;;;;5.00;75.17;100145.24;1725137;83;21783;-66
2022/11/25 00:03:44;;;;;;;;;;;;;;;4.98;75.12;100146.01;1721257;82;20967;-67
2022/11/25 00:06:22;;;;;;;37.20;19.12;;;;;;;4.96;75.11;100147.55;1707559;83;20496;-67
2022/11/25 00:08:52;;;;;;;34.67;18.87;;;;;;;4.97;75.10;100151.83;1723125;82;21071;-68
2022/11/25 00:11:20;;;;;;;39.53;19.30;;;;;;;4.96;75.16;100156.01;1725511;82;20976;-68
2022/11/25 00:13:47;;;;;;;34.08;19.00;;;;;;;4.94;75.16;100155.73;1719769;83;21927;-66
2022/11/25 00:16:19;;;;;;;32.40;17.85;;;;;;;4.94;75.11;100158.90;1723293;82;21543;-69
2022/11/25 00:18:47;;;;;;;47.15;20.80;;;;;;;4.94;75.09;100157.05;1727566;82;21027;-68
2022/11/25 00:21:18;;;;;;;38.75;19.05;;;;;;;4.92;75.07;100165.73;1725907;83;21011;-67
2022/11/25 00:23:52;;;;;;;39.90;19.23;;;;;;;4.91;75.07;100162.00;1714885;83;21086;-70
2022/11/25 00:26:19;;;;;;;34.48;17.87;;;;;;;4.94;75.09;100157.58;1697098;83;21763;-68
2022/11/25 00:28:46;;;;;;;41.05;18.75;;;;;;;4.94;75.01;100153.08;1728445;83;21576;-67
2022/11/25 00:31:19;;;;;;;38.23;18.37;;;;;;;4.90;74.97;100159.05;1707457;83;21047;-69
2022/11/25 00:33:46;;;;;;;46.75;18.75;;;;;;;4.86;75.01;100151.28;1685456;83;21044;-67
2022/11/25 00:36:31;;;;;;;44.20;19.27;;;;;;;4.83;74.94;100157.03;1706888;83;21099;-67
2022/11/25 00:39:06;;;;;;;52.90;18.65;;;;;;;4.81;75.04;100161.77;1699405;84;21186;-68
2022/11/25 00:44:35;;;;;;;45.88;19.30;;;;;;;4.84;75.15;100158.14;1726926;82;21015;-66
2022/11/25 00:47:11;;;;;;;35.53;18.33;;;;;;;4.85;75.13;100158.42;1726273;81;21537;-70
2022/11/25 00:49:39;;;;;;;34.48;18.10;;;;;;;4.84;75.13;100164.76;1726610;83;21477;-67
2022/11/25 00:52:05;;;;;;;34.90;17.82;;;;;;;4.82;75.16;100158.87;1730577;83;21824;-66
2022/11/25 00:54:32;;;;;;;42.23;18.87;;;;;;;4.87;75.19;100159.50;1725662;82;21058;-67
2022/11/25 00:56:59;;;;;;;37.17;18.27;;;;;;;4.87;75.16;100160.82;1726168;82;21023;-67
2022/11/25 00:59:25;;;;;;;34.15;18.52;;;;;;;4.88;75.21;100146.58;1699363;83;21103;-67
2022/11/25 01:01:52;;;;;;;32.85;17.98;;;;;;;4.88;75.23;100152.67;1687105;85;21099;-67
2022/11/25 01:04:19;;;;;;;42.75;19.40;;;;;;;4.91;75.22;100156.70;1681225;84;21241;-66
2022/11/25 01:06:46;;;;;;;50.10;20.20;;;;;;;4.92;75.20;100164.92;1712494;83;21007;-67
2022/11/25 01:09:15;;;;;;;51.02;18.98;;;;;;;4.92;75.20;100164.41;1717176;83;21713;-67
2022/11/25 01:11:42;;;;;;;31.42;18.75;;;;;;;4.93;75.20;100159.91;1716553;83;21001;-68
2022/11/25 01:14:10;;;;;;;32.73;18.10;;;;;;;4.96;75.18;100159.98;1703288;83;21004;-67
2022/11/25 01:16:37;;;;;;;37.70;18.60;;;;;;;4.98;75.17;100155.27;1714451;83;21144;-66
2022/11/25 01:19:05;;;;;;;35.70;18.30;;;;;;;4.99;75.11;100156.88;1717020;83;21009;-67
2022/11/25 01:21:33;;;;;;;29.90;17.10;;;;;;;4.96;75.09;100161.30;1716217;83;21192;-68
2022/11/25 01:24:01;;;;;;;40.50;18.32;;;;;;;4.97;75.07;100161.09;1668857;84;21156;-68
2022/11/25 01:26:29;;;;;;;31.85;17.48;;;;;;;4.99;75.02;100166.14;1706907;84;21035;-68
2022/11/25 01:28:58;;;;;;;38.75;18.82;;;;;;;5.01;75.00;100167.53;1727686;82;21142;-68
2022/11/25 01:31:28;;;;;;;41.65;18.55;;;;;;;5.00;74.91;100166.42;1718578;82;21059;-68
2022/11/25 01:34:02;;;;;;;31.45;17.57;;;;;;;5.00;74.91;100177.00;1728827;82;21027;-68
2022/11/25 01:36:29;;;;;;;41.28;18.75;;;;;;;5.02;74.81;100177.59;1728491;82;21007;-66
2022/11/25 01:38:58;;;;;;;32.95;17.90;;;;;;;4.99;74.81;100176.73;1701790;83;21075;-68
2022/11/25 01:41:30;;;;;;;40.35;19.48;;;;;;;4.99;74.84;100178.85;1741105;82;21234;-69
2022/11/25 01:44:09;;;;;;;;;;;;;;;4.98;74.82;100185.19;1700072;83;21099;-68
2022/11/25 01:47:00;;;;;;;36.20;17.67;;;;;;;4.98;74.79;100180.41;1720145;82;20177;-68
2022/11/25 01:49:49;;;;;;;46.10;19.00;;;;;;;4.97;74.80;100180.94;1725224;82;21174;-68
2022/11/25 01:52:21;;;;;;;37.03;18.42;;;;;;;4.96;74.74;100180.63;1741929;82;20984;-68
2022/11/25 01:55:01;;;;;;;44.20;17.48;;;;;;;4.93;74.69;100173.95;1725522;82;21246;-68
2022/11/25 01:57:36;;;;;;;36.65;18.40;;;;;;;4.92;74.67;100178.96;1705934;82;21080;-69
2022/11/25 02:00:04;;;;;;;34.25;17.50;;;;;;;4.89;74.64;100178.09;1724141;82;21032;-67
2022/11/25 02:02:33;;;;;;;34.45;17.40;;;;;;;4.84;74.68;100177.98;1721242;83;21004;-66
2022/11/25 02:05:02;;;;;;;32.98;18.07;;;;;;;4.84;74.72;100179.31;1720676;82;21154;-67
2022/11/25 02:07:34;;;;;;;34.78;18.55;;;;;;;4.87;74.77;100178.86;1695583;82;21120;-69
2022/11/25 02:10:03;;;;;;;36.23;17.40;;;;;;;4.89;74.81;100178.61;1695659;83;21059;-67
2022/11/25 02:12:30;;;;;;;45.52;19.12;;;;;;;4.89;74.81;100189.20;1715881;83;20949;-68
2022/11/25 02:14:58;;;;;;;32.75;17.05;;;;;;;4.88;74.79;100181.78;1706922;83;21690;-68
2022/11/25 02:17:25;;;;;;;34.95;17.52;;;;;;;4.89;74.77;100186.55;1727786;82;21521;-67
2022/11/25 02:20:03;;;;;;;32.83;17.62;;;;;;;4.87;74.78;100181.99;1724254;82;21326;-67
2022/11/25 02:23:00;;;;;;;37.28;17.75;;;;;;;4.87;74.85;100184.15;1721344;83;21055;-67
2022/11/25 02:25:33;;;;;;;37.83;18.40;;;;;;;4.88;74.79;100195.02;1728067;83;21153;-67
2022/11/25 02:28:22;;;;;;;30.82;16.23;;;;;;;4.90;74.84;100188.16;1727929;83;21066;-68
2022/11/25 02:30:50;;;;;;;36.08;18.17;;;;;;;4.92;74.83;100192.72;1727816;83;21149;-67
2022/11/25 02:33:19;;;;;;;38.73;18.35;;;;;;;4.89;74.83;100199.78;1728369;82;21034;-67
2022/11/25 02:35:49;;;;;;;35.68;17.07;;;;;;;4.90;74.87;100204.87;1740591;82;21435;-68
2022/11/25 02:38:39;;;;;;;33.30;17.73;;;;;;;4.92;74.86;100202.78;1728171;82;21027;-68
2022/11/25 02:41:27;;;;;;;35.92;17.42;;;;;;;4.92;74.83;100211.23;1715964;83;21082;-68
2022/11/25 02:43:57;;;;;;;35.00;16.90;;;;;;;4.90;74.85;100211.48;1729052;82;21042;-68
2022/11/25 02:46:25;;;;;;;29.30;17.05;;;;;;;4.93;74.89;100211.00;1726788;82;21082;-68
2022/11/25 02:48:53;;;;;;;34.25;15.32;;;;;;;4.97;74.85;100219.31;1726667;81;21206;-67
2022/11/25 02:51:23;;;;;;;34.23;18.17;;;;;;;4.96;74.82;100219.52;1736326;82;21510;-66
2022/11/25 02:53:50;;;;;;;29.57;16.30;;;;;;;4.92;74.76;100226.59;1728248;82;21063;-67
2022/11/25 02:56:21;;;;;;;28.42;15.65;;;;;;;4.94;74.77;100224.54;1723997;82;21540;-68
2022/11/25 02:58:47;;;;;;;34.20;17.48;;;;;;;4.94;74.79;100222.41;1719996;82;21242;-67
2022/11/25 03:01:14;;;;;;;41.77;18.35;;;;;;;4.96;74.82;100230.11;1726682;83;21105;-68
2022/11/25 03:03:42;;;;;;;39.90;18.90;;;;;;;4.97;74.81;100231.72;1726145;83;21086;-67
2022/11/25 03:06:09;;;;;;;39.90;18.10;;;;;;;4.97;74.75;100232.55;1729057;83;21016;-68
2022/11/25 03:08:37;;;;;;;43.92;18.82;;;;;;;4.98;74.80;100238.64;1727610;82;20984;-67
2022/11/25 03:11:05;;;;;;;30.10;16.48;;;;;;;5.01;74.81;100243.48;1726337;81;21973;-68
2022/11/25 15:13:45;;;;;;;18.43;11.00;;;;;;;4.21;89.15;100640.63;1730582;82;22792;-72
2022/11/25 15:16:20;;;;;;;19.07;10.38;;;;;;;4.27;88.19;100642.11;1738047;82;21044;-72
2022/11/25 15:18:51;;;;;;;20.75;11.40;;;;;;;4.35;87.70;100645.84;1725033;82;21310;-73
2022/11/25 15:21:21;;;;;;;21.93;12.88;;;;;;;4.41;87.32;100647.11;1724281;82;20998;-72
2022/11/25 15:23:47;;;;;;;20.55;12.37;;;;;;;4.49;86.74;100655.81;1728645;82;21437;-74
2022/11/25 15:26:18;;;;;;;20.88;11.22;;;;;;;4.52;86.15;100652.73;1728210;82;21070;-72
2022/11/25 15:28:45;;;;;;;19.10;10.55;;;;;;;4.50;85.50;100655.58;1728551;83;21533;-72
2022/11/25 15:31:18;;;;;;;19.23;11.65;;;;;;;4.52;85.09;100660.16;1728216;82;21604;-72
2022/11/25 15:33:46;;;;;;;19.25;10.93;;;;;;;4.50;84.56;100663.52;1728547;82;21019;-72
2022/11/25 15:36:12;;;;;;;22.10;12.47;;;;;;;4.50;84.10;100664.03;1733489;81;21068;-73
2022/11/25 15:38:42;;;;;;;21.07;11.15;;;;;;;4.47;83.61;100659.98;1707568;82;21076;-72
2022/11/25 15:41:34;;;;;;;22.90;11.90;;;;;;;4.46;83.24;100659.17;1738075;82;21016;-72
2022/11/25 15:44:03;;;;;;;21.40;12.30;;;;;;;4.48;82.99;100658.97;1738766;81;21256;-72
2022/11/25 15:46:32;;;;;;;20.10;11.43;;;;;;;4.55;82.80;100657.60;1738069;81;21070;-72
2022/11/25 15:49:04;;;;;;;17.10;10.23;;;;;;;4.59;82.55;100660.91;1738566;81;21056;-72
2022/11/25 15:51:43;;;;;;;20.10;11.23;;;;;;;4.66;82.31;100657.70;1736125;82;21083;-72
2022/11/25 15:54:27;;;;;;;20.55;10.88;;;;;;;4.67;81.99;100654.54;1684152;84;21039;-72
2022/11/25 15:57:03;;;;;;;16.27;9.43;;;;;;;4.73;81.83;100658.17;1733422;81;21333;-73
2022/11/25 15:59:41;;;;;;;16.67;9.45;;;;;;;4.77;81.56;100650.92;1712238;83;21052;-72
2022/11/25 16:02:40;;;;;;;16.02;9.10;;;;;;;4.78;81.23;100651.73;1752037;81;20990;-72
2022/11/25 16:05:27;;;;;;;15.45;8.93;;;;;;;4.77;80.96;100657.54;1733717;81;21100;-73
2022/11/25 16:07:58;;;;;;;15.70;9.85;;;;;;;4.74;80.57;100652.67;1756105;81;20929;-72
2022/11/25 16:10:34;;;;;;;19.95;11.50;;;;;;;4.72;80.28;100652.07;1710951;82;21122;-72
2022/11/25 16:13:27;;;;;;;16.85;9.75;;;;;;;4.70;80.02;100655.44;1699826;83;20994;-72
2022/11/25 16:16:08;;;;;;;17.27;10.58;;;;;;;4.69;79.82;100653.83;1715916;83;21047;-72
2022/11/25 16:18:41;;;;;;;18.70;11.20;;;;;;;4.68;79.59;100658.83;1733012;82;21463;-73
2022/11/25 16:21:18;;;;;;;18.52;10.90;;;;;;;4.65;79.32;100651.32;1733067;82;21072;-74
2022/11/25 16:23:56;;;;;;;20.17;11.73;;;;;;;4.63;79.14;100656.80;1725618;82;21164;-72
2022/11/25 16:26:37;;;;;;;18.45;10.90;;;;;;;4.61;78.99;100656.23;1736235;81;21571;-73
2022/11/25 16:29:39;;;;;;;18.52;10.32;;;;;;;4.61;78.79;100663.36;1758856;81;20993;-72
2022/11/25 16:32:15;;;;;;;16.60;9.95;;;;;;;4.59;78.56;100666.72;1758690;81;21195;-72
2022/11/25 16:34:42;;;;;;;15.78;9.78;;;;;;;4.57;78.40;100676.70;1758691;81;21026;-72
2022/11/25 16:37:09;;;;;;;16.70;9.78;;;;;;;4.55;78.27;100680.09;1758651;81;21160;-72
2022/11/25 16:39:37;;;;;;;16.05;9.48;;;;;;;4.57;78.21;100683.31;1758440;81;21009;-73
2022/11/25 16:42:04;;;;;;;18.12;10.58;;;;;;;4.59;78.00;100681.27;1758249;81;21155;-74
2022/11/25 16:44:34;;;;;;;14.95;9.15;;;;;;;4.57;77.92;100678.02;1757528;81;20973;-72
2022/11/25 16:47:01;;;;;;;15.38;8.98;;;;;;;4.58;77.84;100683.63;1758300;81;21077;-72
2022/11/25 16:49:29;;;;;;;15.60;9.18;;;;;;;4.61;77.78;100680.04;1758767;81;21530;-74
2022/11/25 16:51:57;;;;;;;16.42;8.80;;;;;;;4.66;77.70;100677.55;1758261;80;21025;-73
2022/11/25 16:54:25;;;;;;;14.18;8.10;;;;;;;4.68;77.54;100682.13;1750210;81;20971;-70
2022/11/25 16:56:53;;;;;;;12.40;7.97;;;;;;;4.66;77.32;100684.16;1725874;82;21601;-72
2022/11/25 16:59:37;;;;;;;13.50;7.90;;;;;;;4.64;77.16;100685.39;1722558;82;21052;-73
2022/11/25 17:02:19;;;;;;;11.03;7.25;;;;;;;4.62;77.02;100684.81;1729003;81;21009;-72
2022/11/25 17:04:46;;;;;;;12.98;7.47;;;;;;;4.60;76.95;100686.85;1702339;83;21531;-72
2022/11/25 17:07:14;;;;;;;11.50;7.60;;;;;;;4.63;76.89;100687.23;1728545;83;21028;-72
2022/11/25 17:09:42;;;;;;;12.07;7.45;;;;;;;4.66;76.87;100689.97;1728931;82;21602;-72
2022/11/25 17:12:22;;;;;;;12.25;7.72;;;;;;;4.80;76.37;100695.45;1728394;82;21427;-74
2022/11/25 17:14:49;;;;;;;12.33;7.78;;;;;;;4.82;76.08;100693.41;1728541;82;21164;-72
2022/11/25 17:17:21;;;;;;;14.15;8.55;;;;;;;4.83;75.90;100691.05;1734689;80;21537;-73
2022/11/25 17:19:48;;;;;;;;;;;;;;;4.85;75.81;100691.66;1753123;81;21012;-72
2022/11/25 17:22:18;;;;;;;12.37;7.45;;;;;;;4.82;75.58;100685.98;1749524;80;20157;-72
2022/11/25 17:24:44;;;;;;;13.38;7.78;;;;;;;4.79;75.42;100686.42;1747623;80;21025;-73
2022/11/25 17:27:21;;;;;;;13.08;8.10;;;;;;;4.79;75.33;100687.73;1741856;81;22113;-73
2022/11/25 17:29:48;;;;;;;12.98;8.00;;;;;;;4.75;75.19;100686.56;1748536;80;21052;-72
2022/11/25 17:32:14;;;;;;;18.70;8.35;;;;;;;4.72;75.12;100685.14;1744165;81;21079;-71
2022/11/25 17:34:41;;;;;;;13.68;7.87;;;;;;;4.71;75.05;100678.24;1755758;81;21311;-72
2022/11/25 17:37:29;;;;;;;13.05;8.20;;;;;;;4.69;75.00;100678.44;1754947;79;20978;-73
2022/11/25 17:39:55;;;;;;;12.47;7.22;;;;;;;4.67;74.97;100679.67;1757189;79;21195;-72
2022/11/25 17:42:29;;;;;;;11.85;6.87;;;;;;;4.66;74.93;100674.09;1729458;81;21043;-73
2022/11/25 17:45:03;;;;;;;12.09;7.42;;;;;;;4.66;74.95;100676.73;1593937;79;10000210;-74
2022/11/25 17:47:29;;;;;;;11.57;6.72;;;;;;;4.64;75.47;100673.48;1719257;81;20974;-73
2022/11/25 17:49:57;;;;;;;10.30;5.90;;;;;;;4.62;74.94;100673.72;1742070;81;26796;-73
2022/11/25 17:52:23;;;;;;;12.28;7.42;;;;;;;4.64;74.92;100669.03;1736657;81;21046;-72
2022/11/25 18:12:41;;;;;;;13.03;8.70;;;;;;;4.55;75.06;100658.92;1625535;79;9999733;-74
2022/11/25 18:30:39;;;;;;;8.83;5.67;;;;;;;4.85;76.25;100663.06;1781319;79;26313;-72
2022/11/25 18:33:28;;;;;;;9.13;6.03;;;;;;;4.78;76.03;100664.44;1757181;80;21038;-72
2022/11/25 18:36:19;;;;;;;9.85;6.30;;;;;;;4.70;75.79;100668.17;1746659;79;21149;-72
2022/11/25 18:51:57;;;;;;;14.70;8.40;;;;;;;4.62;75.68;100686.14;1752788;80;21102;-72
2022/11/25 18:54:47;;;;;;;;;;;;;;;;;;;;;
2022/11/25 18:57:02;;;;;;;14.05;7.25;;;;;;;4.08;76.63;100702.83;1754476;81;21031;-72
2022/11/25 18:59:35;;;;;;;13.62;8.35;;;;;;;3.99;77.08;100700.12;1735333;81;21805;-73
2022/11/25 19:02:18;;;;;;;14.43;8.85;;;;;;;4.03;77.09;100707.92;1744598;81;21582;-73
2022/11/25 19:04:52;;;;;;;11.20;7.08;;;;;;;4.06;77.08;100706.18;1739391;81;21572;-73
2022/11/25 19:07:26;;;;;;;13.08;8.48;;;;;;;3.95;77.28;100716.91;1759923;81;20996;-73
2022/11/25 19:10:06;;;;;;;11.05;7.92;;;;;;;3.89;77.53;100718.25;1735029;81;21271;-73
2022/11/25 19:15:09;;;;;;;;;;;;;;;3.82;77.78;100726.20;1630366;87;21678;-73
2022/11/25 19:17:40;;;;;;;11.65;7.65;;;;;;;3.79;77.89;100735.05;1697431;83;20192;-74
2022/11/25 19:20:21;;;;;;;12.70;6.60;;;;;;;3.79;78.04;100741.14;1546810;85;10000087;-73
2022/11/25 19:22:59;;;;;;;9.38;6.30;;;;;;;3.85;78.19;100746.92;1663702;83;21636;-73
2022/11/25 19:25:31;;;;;;;10.03;6.33;;;;;;;3.87;78.23;100747.51;1676850;83;21056;-72
2022/11/25 19:28:10;;;;;;;8.50;5.55;;;;;;;3.91;78.26;100748.70;1671564;85;21192;-73
2022/11/25 19:30:43;;;;;;;10.53;6.17;;;;;;;3.94;78.23;100745.66;1673631;84;21657;-72
2022/11/25 19:33:43;;;;;;;8.25;5.50;;;;;;;3.96;78.20;100742.81;1682084;83;21089;-72
2022/11/25 19:36:33;;;;;;;8.03;5.10;;;;;;;3.95;78.21;100743.33;1641679;83;21142;-72
2022/11/25 19:39:14;;;;;;;7.40;5.03;;;;;;;3.95;78.13;100744.66;1686188;83;21020;-74
2022/11/25 19:41:47;;;;;;;7.10;4.80;;;;;;;3.95;78.10;100739.88;1639145;83;21058;-73
2022/11/25 19:44:13;;;;;;;8.13;5.42;;;;;;;3.95;78.10;100739.88;1671856;84;21209;-73
2022/11/25 19:46:51;;;;;;;9.18;5.40;;;;;;;3.95;78.16;100739.37;1672210;84;21114;-73
2022/11/25 19:49:21;;;;;;;8.78;5.72;;;;;;;4.02;78.19;100737.22;1675256;85;21095;-73
2022/11/25 19:52:13;;;;;;;;;;;;;;;;;;;;;
2022/11/25 19:54:44;;;;;;;8.38;5.42;;;;;;;4.10;78.11;100726.39;1690753;83;21051;-72
2022/11/25 19:57:21;;;;;;;;;;;;;;;4.07;77.97;100727.62;1686844;83;21584;-71
2022/11/25 19:59:54;;;;;;;10.23;5.70;;;;;;;4.04;77.90;100725.91;1674521;83;20466;-71
2022/11/25 20:02:37;;;;;;;7.67;4.87;;;;;;;4.03;77.91;100721.65;1671813;83;21110;-72
2022/11/25 20:05:03;;;;;;;7.15;5.05;;;;;;;4.14;77.62;100714.37;1680693;83;21100;-71
2022/11/25 20:07:37;;;;;;;7.45;4.90;;;;;;;4.14;77.41;100708.56;1624432;86;21054;-71
2022/11/25 20:10:14;;;;;;;7.53;4.87;;;;;;;4.12;77.22;100700.57;1665909;83;21075;-72
2022/11/25 20:12:51;;;;;;;8.05;5.30;;;;;;;4.12;77.22;100700.57;1689177;83;21157;-71
2022/11/25 20:15:21;;;;;;;8.70;5.57;;;;;;;4.10;77.31;100703.92;1454807;83;10000392;-72
2022/11/25 20:18:00;;;;;;;10.70;6.60;;;;;;;4.10;77.33;100703.92;1680810;85;21178;-73
2022/11/25 20:20:36;;;;;;;10.38;7.08;;;;;;;4.11;77.33;100707.66;1675086;85;21600;-72
2022/11/25 20:23:36;;;;;;;10.00;6.40;;;;;;;4.11;77.42;100716.11;1678829;85;21573;-72
2022/11/25 20:25:59;;;;;;;9.03;6.03;;;;;;;4.14;77.42;100713.05;1680544;85;21106;-71
2022/11/25 20:28:41;;;;;;;11.15;6.53;;;;;;;4.04;77.69;100721.42;1678240;85;21051;-72
2022/11/25 20:31:20;;;;;;;10.70;6.50;;;;;;;4.16;77.41;100721.08;1653994;86;21556;-73
2022/11/25 20:33:52;;;;;;;10.65;6.42;;;;;;;4.17;77.35;100720.05;1671707;85;21068;-72
2022/11/25 20:36:35;;;;;;;11.68;7.15;;;;;;;4.15;77.38;100714.69;1677627;85;21031;-71
2022/11/25 20:39:11;;;;;;;11.53;7.42;;;;;;;4.16;77.38;100708.37;1669297;85;21557;-72
2022/11/25 20:41:49;;;;;;;10.90;6.72;;;;;;;4.13;77.31;100706.15;1674172;85;21495;-71
2022/11/25 20:44:30;;;;;;;8.93;5.92;;;;;;;4.08;77.29;100704.15;1654777;84;21016;-73
2022/11/25 20:47:26;;;;;;;;;;;;;;;;;;;;;
2022/11/25 20:49:58;;;;;;;8.05;5.33;;;;;;;4.02;77.26;100702.86;1661997;84;20988;-72
2022/11/25 20:52:37;;;;;;;6.80;4.50;;;;;;;3.98;77.31;100707.72;1629629;85;21032;-72
2022/11/25 20:55:23;;;;;;;5.55;3.62;;;;;;;3.96;77.36;100697.38;1675405;84;21220;-72
2022/11/25 20:58:07;;;;;;;7.72;3.90;;;;;;;3.96;77.46;100696.05;1674617;84;21457;-73
2022/11/25 21:00:39;;;;;;;6.63;4.67;;;;;;;3.97;77.52;100687.09;1418578;85;10000592;-73
2022/11/25 21:03:09;;;;;;;8.95;5.62;;;;;;;3.97;77.60;100688.42;1671429;85;21630;-73
2022/11/25 21:05:44;;;;;;;7.95;5.53;;;;;;;4.01;77.64;100687.48;1672110;85;21573;-73
2022/11/25 21:08:21;;;;;;;6.90;5.00;;;;;;;4.02;77.70;100689.13;1675532;85;21099;-74
2022/11/25 21:11:02;;;;;;;7.35;5.03;;;;;;;4.03;77.67;100699.18;1674856;84;21071;-73
2022/11/25 21:13:34;;;;;;;7.95;5.70;;;;;;;4.02;77.70;100704.17;1676572;85;21062;-72
2022/11/25 21:16:02;;;;;;;7.35;5.80;;;;;;;3.97;77.70;100704.27;1693546;83;21079;-72
2022/11/25 21:18:35;;;;;;;7.78;5.72;;;;;;;3.97;77.81;100707.43;1683312;84;21063;-72
2022/11/25 21:21:06;;;;;;;;;;;;;;;3.99;77.78;100716.78;1670085;85;21101;-72
2022/11/25 21:23:43;;;;;;;10.38;7.03;;;;;;;3.97;77.80;100717.48;1657389;83;20550;-73
2022/11/25 21:26:19;;;;;;;8.65;6.20;;;;;;;3.99;77.87;100719.94;1656908;85;21095;-72
2022/11/25 21:28:49;;;;;;;10.85;7.47;;;;;;;4.02;77.91;100720.03;1665350;85;21102;-72
2022/11/25 21:31:21;;;;;;;14.53;8.40;;;;;;;4.02;77.84;100718.72;1668499;86;21087;-72
2022/11/25 21:34:10;;;;;;;;;;;;;;;;;;;;;
2022/11/25 21:36:38;;;;;;;11.55;7.50;;;;;;;3.97;77.77;100719.33;1672065;84;21371;-72
2022/11/25 21:39:43;;;;;;;11.28;6.47;;;;;;;3.97;77.81;100726.73;1678576;83;21016;-72
2022/11/25 21:42:18;;;;;;;;;;;;;;;;;;;;;
2022/11/25 21:44:48;;;;;;;9.13;5.30;;;;;;;3.92;77.86;100747.70;1677834;83;21118;-73
2022/11/25 21:47:31;;;;;;;9.80;5.90;;;;;;;3.92;77.93;100743.75;1668391;85;21118;-72
2022/11/25 21:49:58;;;;;;;8.60;5.35;;;;;;;3.94;77.97;100743.52;1665567;86;21691;-71
2022/11/25 21:52:30;;;;;;;9.90;5.30;;;;;;;3.94;77.88;100739.05;1665114;86;21051;-71
2022/11/25 21:55:00;;;;;;;10.00;5.70;;;;;;;3.95;77.84;100750.45;1672521;85;21486;-71
2022/11/25 21:57:37;;;;;;;8.53;4.75;;;;;;;4.01;77.89;100753.56;1682505;83;21090;-72
2022/11/25 22:00:05;;;;;;;7.53;4.33;;;;;;;4.03;77.77;100748.08;1681959;84;21445;-71
2022/11/25 22:02:49;;;;;;;;;;;;;;;;;;;;;
2022/11/25 22:05:16;;;;;;;10.28;5.20;;;;;;;4.03;77.57;100749.41;1679615;83;21076;-71
2022/11/25 22:07:46;;;;;;;9.85;5.10;;;;;;;4.06;77.60;100751.63;1686864;85;20990;-71
2022/11/25 22:10:28;;;;;;;8.40;5.08;;;;;;;4.11;77.67;100753.12;1676241;83;21110;-72
2022/11/25 22:13:01;;;;;;;8.25;4.37;;;;;;;4.20;77.72;100751.35;1640751;85;21570;-72
2022/11/25 22:15:40;;;;;;;6.85;4.30;;;;;;;4.26;77.55;100747.06;1657291;84;21040;-71
2022/11/25 22:18:20;;;;;;;9.45;4.20;;;;;;;4.26;77.44;100745.74;1680073;85;20964;-71
2022/11/25 22:20:57;;;;;;;8.08;4.53;;;;;;;4.25;77.38;100743.33;1673418;84;21029;-72
2022/11/25 22:23:31;;;;;;;7.62;4.33;;;;;;;4.26;77.34;100751.55;1677591;84;21094;-72
2022/11/25 22:26:13;;;;;;;6.80;3.65;;;;;;;4.23;77.22;100746.16;1685381;85;21041;-71
2022/11/25 22:31:19;;;;;;;8.65;4.60;;;;;;;4.26;77.20;100751.55;1661770;83;21131;-71
2022/11/25 22:33:50;;;;;;;6.78;3.80;;;;;;;4.29;77.23;100749.80;1655461;84;21423;-72
2022/11/25 22:36:43;;;;;;;4.60;2.90;;;;;;;4.34;77.14;100752.09;1702045;84;21525;-72
2022/11/25 22:39:29;;;;;;;6.15;3.62;;;;;;;4.34;76.93;100754.74;1657849;83;21088;-73
2022/11/25 22:42:07;;;;;;;6.50;3.25;;;;;;;3.98;77.64;100753.48;1678486;84;20986;-71
2022/11/25 22:44:44;;;;;;;5.17;3.50;;;;;;;3.93;77.91;100751.16;1670964;85;21499;-71
2022/11/25 22:47:32;;;;;;;6.33;3.60;;;;;;;4.26;77.25;100762.13;1672967;83;21060;-71
2022/11/25 22:50:09;;;;;;;;;;;;;;;;;;;;;
2022/11/25 22:52:39;;;;;;;4.90;3.17;;;;;;;4.38;76.77;100763.09;1649239;85;21509;-71
2022/11/25 22:55:26;;;;;;;7.83;4.42;;;;;;;4.38;76.67;100761.25;1678907;85;20973;-71
2022/11/25 22:58:02;;;;;;;6.55;4.65;;;;;;;4.40;76.54;100766.32;1670756;83;21000;-72
2022/11/25 23:00:48;;;;;;;;;;;;;;;;;;;;;
2022/11/25 23:03:35;;;;;;;5.62;4.05;;;;;;;4.33;76.37;100758.42;1679535;85;20976;-71
2022/11/25 23:06:10;;;;;;;7.60;4.80;;;;;;;4.34;76.38;100764.52;1592791;90;21562;-72
2022/11/25 23:08:45;;;;;;;7.20;4.53;;;;;;;4.29;76.35;100760.38;1611791;87;21096;-72
2022/11/25 23:11:15;;;;;;;6.40;4.00;;;;;;;4.27;76.36;100757.12;1566381;88;21045;-72
2022/11/25 23:13:51;;;;;;;5.80;3.87;;;;;;;3.95;77.06;100759.70;1621281;86;21471;-72
2022/11/25 23:16:22;;;;;;;6.05;3.85;;;;;;;3.86;77.43;100759.11;1639453;86;21098;-71
2022/11/25 23:18:51;;;;;;;5.53;3.67;;;;;;;3.82;77.68;100767.64;1667477;86;21044;-71
2022/11/25 23:21:31;;;;;;;6.22;3.60;;;;;;;3.80;77.80;100769.17;1681731;83;20980;-71
2022/11/25 23:23:52;;;;;;;5.83;4.05;;;;;;;3.80;77.90;100774.97;1688968;84;21047;-72
2022/11/25 23:26:27;;;;;;;5.67;3.70;;;;;;;3.86;77.74;100771.00;1681247;84;21102;-71
2022/11/25 23:29:03;;;;;;;5.67;3.37;;;;;;;3.80;78.00;100771.02;1680012;85;21019;-74
2022/11/25 23:31:37;;;;;;;6.25;4.00;;;;;;;3.76;78.10;100771.94;1675624;83;21107;-72
2022/11/25 23:34:11;;;;;;;5.72;3.87;;;;;;;3.76;78.16;100773.26;1672867;84;21023;-71
2022/11/25 23:36:44;;;;;;;5.92;3.70;;;;;;;3.76;78.27;100771.94;1650477;85;21008;-72
2022/11/25 23:39:23;;;;;;;6.03;3.80;;;;;;;3.77;78.39;100776.20;1681800;83;21174;-71
2022/11/25 23:41:55;;;;;;;5.70;3.60;;;;;;;3.78;78.46;100779.13;1647282;85;21484;-73
2022/11/25 23:44:25;;;;;;;7.55;4.35;;;;;;;3.78;78.46;100777.00;1676184;85;21126;-72
2022/11/25 23:47:02;;;;;;;6.28;3.80;;;;;;;3.76;78.53;100775.39;1652588;85;21090;-72
2022/11/25 23:49:39;;;;;;;5.72;3.67;;;;;;;3.77;78.61;100777.52;1679103;83;21144;-72
2022/11/25 23:52:33;;;;;;;;;;;;;;;;;;;;;
2022/11/25 23:54:51;;;;;;;6.53;3.92;;;;;;;4.14;77.52;100781.78;1671556;85;21558;-71
2022/11/25 23:57:26;;;;;;;5.53;3.62;;;;;;;4.00;77.53;100779.18;1681131;85;21087;-72
